sensor_id;sensor_type;location;lat;lon;timestamp;temperature;humidity
23669;DHT22;12011;47.422;15.018;2022-10-31T00:00:56;5.20;99.90
23669;DHT22;12011;47.422;15.018;2022-10-31T00:03:28;5.10;99.90
23669;DHT22;12011;47.422;15.018;2022-10-31T00:05:57;5.20;99.90
23669;DHT22;12011;47.422;15.018;2022-10-31T00:08:27;5.30;99.90
23669;DHT22;12011;47.422;15.018;2022-10-31T00:10:57;5.40;99.90
23669;DHT22;12011;47.422;15.018;2022-10-31T00:13:26;5.50;99.90
23669;DHT22;12011;47.422;15.018;2022-10-31T00:15:58;5.60;99.90
23669;DHT22;12011;47.422;15.018;2022-10-31T00:18:28;5.60;99.90
23669;DHT22;12011;47.422;15.018;2022-10-31T00:21:01;5.70;99.90
23669;DHT22;12011;47.422;15.018;2022-10-31T00:23:31;5.50;99.90
23669;DHT22;12011;47.422;15.018;2022-10-31T00:26:01;5.50;99.90
23669;DHT22;12011;47.422;15.018;2022-10-31T00:28:31;5.50;99.90
23669;DHT22;12011;47.422;15.018;2022-10-31T00:31:04;5.50;99.90
23669;DHT22;12011;47.422;15.018;2022-10-31T00:33:37;5.50;99.90
23669;DHT22;12011;47.422;15.018;2022-10-31T00:36:11;5.30;99.90
23669;DHT22;12011;47.422;15.018;2022-10-31T00:38:43;5.30;99.90
23669;DHT22;12011;47.422;15.018;2022-10-31T00:41:15;5.30;99.90
23669;DHT22;12011;47.422;15.018;2022-10-31T00:43:46;5.10;99.90
23669;DHT22;12011;47.422;15.018;2022-10-31T00:46:18;4.90;99.90
23669;DHT22;12011;47.422;15.018;2022-10-31T00:48:50;4.70;99.90
23669;DHT22;12011;47.422;15.018;2022-10-31T00:51:20;4.70;99.90
23669;DHT22;12011;47.422;15.018;2022-10-31T00:53:49;5.00;99.90
23669;DHT22;12011;47.422;15.018;2022-10-31T00:56:19;5.20;99.90
23669;DHT22;12011;47.422;15.018;2022-10-31T00:58:49;5.20;99.90
23669;DHT22;12011;47.422;15.018;2022-10-31T01:01:22;5.20;99.90
23669;DHT22;12011;47.422;15.018;2022-10-31T01:03:52;5.20;99.90
23669;DHT22;12011;47.422;15.018;2022-10-31T01:06:22;5.20;99.90
23669;DHT22;12011;47.422;15.018;2022-10-31T01:08:51;5.20;99.90
23669;DHT22;12011;47.422;15.018;2022-10-31T01:11:23;5.10;99.90
23669;DHT22;12011;47.422;15.018;2022-10-31T01:13:53;5.20;99.90
23669;DHT22;12011;47.422;15.018;2022-10-31T01:16:27;5.10;99.90
23669;DHT22;12011;47.422;15.018;2022-10-31T01:18:57;5.10;99.90
23669;DHT22;12011;47.422;15.018;2022-10-31T01:21:28;5.00;99.90
23669;DHT22;12011;47.422;15.018;2022-10-31T01:23:59;5.10;99.90
23669;DHT22;12011;47.422;15.018;2022-10-31T01:26:31;5.20;99.90
23669;DHT22;12011;47.422;15.018;2022-10-31T01:29:04;5.10;99.90
23669;DHT22;12011;47.422;15.018;2022-10-31T01:31:39;4.90;99.90
23669;DHT22;12011;47.422;15.018;2022-10-31T01:34:13;5.10;99.90
23669;DHT22;12011;47.422;15.018;2022-10-31T01:36:45;4.90;99.90
23669;DHT22;12011;47.422;15.018;2022-10-31T01:39:18;4.90;99.90
23669;DHT22;12011;47.422;15.018;2022-10-31T01:41:50;4.90;99.90
23669;DHT22;12011;47.422;15.018;2022-10-31T01:44:48;4.80;99.90
23669;DHT22;12011;47.422;15.018;2022-10-31T01:47:34;4.90;99.90
23669;DHT22;12011;47.422;15.018;2022-10-31T01:50:20;5.00;99.90
23669;DHT22;12011;47.422;15.018;2022-10-31T01:52:55;5.00;99.90
23669;DHT22;12011;47.422;15.018;2022-10-31T01:55:28;4.90;99.90
23669;DHT22;12011;47.422;15.018;2022-10-31T01:58:04;4.60;99.90
23669;DHT22;12011;47.422;15.018;2022-10-31T02:00:37;4.40;99.90
23669;DHT22;12011;47.422;15.018;2022-10-31T02:03:10;4.50;99.90
23669;DHT22;12011;47.422;15.018;2022-10-31T02:05:42;4.50;99.90
23669;DHT22;12011;47.422;15.018;2022-10-31T02:08:16;4.60;99.90
23669;DHT22;12011;47.422;15.018;2022-10-31T02:10:49;4.60;99.90
23669;DHT22;12011;47.422;15.018;2022-10-31T02:13:20;4.50;99.90
23669;DHT22;12011;47.422;15.018;2022-10-31T02:15:54;4.70;99.90
23669;DHT22;12011;47.422;15.018;2022-10-31T02:18:29;4.70;99.90
23669;DHT22;12011;47.422;15.018;2022-10-31T02:21:07;4.70;99.90
23669;DHT22;12011;47.422;15.018;2022-10-31T02:24:07;4.70;99.90
23669;DHT22;12011;47.422;15.018;2022-10-31T02:27:11;4.80;99.90
23669;DHT22;12011;47.422;15.018;2022-10-31T02:30:04;4.70;99.90
23669;DHT22;12011;47.422;15.018;2022-10-31T02:32:57;4.60;99.90
23669;DHT22;12011;47.422;15.018;2022-10-31T02:35:51;4.50;99.90
23669;DHT22;12011;47.422;15.018;2022-10-31T02:38:39;4.40;99.90
23669;DHT22;12011;47.422;15.018;2022-10-31T02:41:32;4.40;99.90
23669;DHT22;12011;47.422;15.018;2022-10-31T02:44:14;4.30;99.90
23669;DHT22;12011;47.422;15.018;2022-10-31T02:46:49;4.30;99.90
23669;DHT22;12011;47.422;15.018;2022-10-31T02:49:30;4.30;99.90
23669;DHT22;12011;47.422;15.018;2022-10-31T02:52:14;4.30;99.90
23669;DHT22;12011;47.422;15.018;2022-10-31T02:54:47;4.30;99.90
23669;DHT22;12011;47.422;15.018;2022-10-31T02:57:23;4.30;99.90
23669;DHT22;12011;47.422;15.018;2022-10-31T03:00:04;4.30;99.90
23669;DHT22;12011;47.422;15.018;2022-10-31T03:02:55;4.30;99.90
23669;DHT22;12011;47.422;15.018;2022-10-31T03:05:46;4.20;99.90
23669;DHT22;12011;47.422;15.018;2022-10-31T03:08:25;4.20;99.90
23669;DHT22;12011;47.422;15.018;2022-10-31T03:11:03;4.20;99.90
23669;DHT22;12011;47.422;15.018;2022-10-31T03:13:41;4.20;99.90
23669;DHT22;12011;47.422;15.018;2022-10-31T03:16:16;4.30;99.90
23669;DHT22;12011;47.422;15.018;2022-10-31T03:18:52;4.20;99.90
23669;DHT22;12011;47.422;15.018;2022-10-31T03:21:32;4.20;99.90
23669;DHT22;12011;47.422;15.018;2022-10-31T03:24:07;3.90;99.90
23669;DHT22;12011;47.422;15.018;2022-10-31T03:26:44;3.90;99.90
23669;DHT22;12011;47.422;15.018;2022-10-31T03:29:19;3.90;99.90
23669;DHT22;12011;47.422;15.018;2022-10-31T03:31:55;3.90;99.90
23669;DHT22;12011;47.422;15.018;2022-10-31T03:34:29;3.90;99.90
23669;DHT22;12011;47.422;15.018;2022-10-31T03:37:06;4.00;99.90
23669;DHT22;12011;47.422;15.018;2022-10-31T03:39:54;4.10;99.90
23669;DHT22;12011;47.422;15.018;2022-10-31T03:42:27;4.10;99.90
23669;DHT22;12011;47.422;15.018;2022-10-31T03:45:02;4.00;99.90
23669;DHT22;12011;47.422;15.018;2022-10-31T03:47:36;3.90;99.90
23669;DHT22;12011;47.422;15.018;2022-10-31T03:50:08;4.00;99.90
23669;DHT22;12011;47.422;15.018;2022-10-31T03:52:46;4.00;99.90
23669;DHT22;12011;47.422;15.018;2022-10-31T03:55:21;4.00;99.90
23669;DHT22;12011;47.422;15.018;2022-10-31T03:58:00;4.00;99.90
23669;DHT22;12011;47.422;15.018;2022-10-31T04:00:35;4.10;99.90
23669;DHT22;12011;47.422;15.018;2022-10-31T04:03:11;4.10;99.90
23669;DHT22;12011;47.422;15.018;2022-10-31T04:05:49;4.10;99.90
23669;DHT22;12011;47.422;15.018;2022-10-31T04:08:26;4.10;99.90
23669;DHT22;12011;47.422;15.018;2022-10-31T04:11:00;4.20;99.90
23669;DHT22;12011;47.422;15.018;2022-10-31T04:13:36;4.20;99.90
23669;DHT22;12011;47.422;15.018;2022-10-31T04:16:16;4.10;99.90
23669;DHT22;12011;47.422;15.018;2022-10-31T04:18:46;4.10;99.90
23669;DHT22;12011;47.422;15.018;2022-10-31T04:21:16;4.00;99.90
23669;DHT22;12011;47.422;15.018;2022-10-31T04:23:50;3.90;99.90
23669;DHT22;12011;47.422;15.018;2022-10-31T04:26:25;3.90;99.90
23669;DHT22;12011;47.422;15.018;2022-10-31T04:28:55;3.90;99.90
23669;DHT22;12011;47.422;15.018;2022-10-31T04:31:26;3.80;99.90
23669;DHT22;12011;47.422;15.018;2022-10-31T04:33:57;3.80;99.90
23669;DHT22;12011;47.422;15.018;2022-10-31T04:36:26;3.70;99.90
23669;DHT22;12011;47.422;15.018;2022-10-31T04:39:00;3.60;99.90
23669;DHT22;12011;47.422;15.018;2022-10-31T04:41:45;3.60;99.90
23669;DHT22;12011;47.422;15.018;2022-10-31T04:44:15;3.60;99.90
23669;DHT22;12011;47.422;15.018;2022-10-31T04:46:49;3.60;99.90
23669;DHT22;12011;47.422;15.018;2022-10-31T04:49:18;3.70;99.90
23669;DHT22;12011;47.422;15.018;2022-10-31T04:51:48;3.70;99.90
23669;DHT22;12011;47.422;15.018;2022-10-31T04:54:21;3.60;99.90
23669;DHT22;12011;47.422;15.018;2022-10-31T04:57:16;3.60;99.90
23669;DHT22;12011;47.422;15.018;2022-10-31T04:59:48;3.80;99.90
23669;DHT22;12011;47.422;15.018;2022-10-31T05:02:18;3.80;99.90
23669;DHT22;12011;47.422;15.018;2022-10-31T05:04:54;3.80;99.90
23669;DHT22;12011;47.422;15.018;2022-10-31T05:07:23;3.90;99.90
23669;DHT22;12011;47.422;15.018;2022-10-31T05:09:56;4.00;99.90
23669;DHT22;12011;47.422;15.018;2022-10-31T05:12:26;4.00;99.90
23669;DHT22;12011;47.422;15.018;2022-10-31T05:15:17;4.10;99.90
23669;DHT22;12011;47.422;15.018;2022-10-31T05:18:07;4.10;99.90
23669;DHT22;12011;47.422;15.018;2022-10-31T05:21:06;4.10;99.90
23669;DHT22;12011;47.422;15.018;2022-10-31T05:23:39;4.10;99.90
23669;DHT22;12011;47.422;15.018;2022-10-31T05:26:11;4.10;99.90
23669;DHT22;12011;47.422;15.018;2022-10-31T05:28:41;4.10;99.90
23669;DHT22;12011;47.422;15.018;2022-10-31T05:31:14;4.00;99.90
23669;DHT22;12011;47.422;15.018;2022-10-31T05:33:43;3.80;99.90
23669;DHT22;12011;47.422;15.018;2022-10-31T05:36:25;3.80;99.90
23669;DHT22;12011;47.422;15.018;2022-10-31T05:38:58;3.70;99.90
23669;DHT22;12011;47.422;15.018;2022-10-31T05:41:36;3.70;99.90
23669;DHT22;12011;47.422;15.018;2022-10-31T05:44:13;3.80;99.90
23669;DHT22;12011;47.422;15.018;2022-10-31T05:47:12;3.80;99.90
23669;DHT22;12011;47.422;15.018;2022-10-31T05:50:01;3.90;99.90
23669;DHT22;12011;47.422;15.018;2022-10-31T05:52:46;3.90;99.90
23669;DHT22;12011;47.422;15.018;2022-10-31T05:55:24;4.00;99.90
23669;DHT22;12011;47.422;15.018;2022-10-31T05:58:12;4.00;99.90
23669;DHT22;12011;47.422;15.018;2022-10-31T06:00:50;4.10;99.90
23669;DHT22;12011;47.422;15.018;2022-10-31T06:03:20;4.20;99.90
23669;DHT22;12011;47.422;15.018;2022-10-31T06:05:54;4.20;99.90
23669;DHT22;12011;47.422;15.018;2022-10-31T06:08:28;4.20;99.90
23669;DHT22;12011;47.422;15.018;2022-10-31T06:11:02;4.30;99.90
23669;DHT22;12011;47.422;15.018;2022-10-31T06:13:52;4.30;99.90
23669;DHT22;12011;47.422;15.018;2022-10-31T06:16:33;4.40;99.90
23669;DHT22;12011;47.422;15.018;2022-10-31T06:19:22;4.30;99.90
23669;DHT22;12011;47.422;15.018;2022-10-31T06:21:52;4.30;99.90
23669;DHT22;12011;47.422;15.018;2022-10-31T06:24:22;4.30;99.90
23669;DHT22;12011;47.422;15.018;2022-10-31T06:27:05;4.40;99.90
23669;DHT22;12011;47.422;15.018;2022-10-31T06:29:38;4.60;99.90
23669;DHT22;12011;47.422;15.018;2022-10-31T06:32:16;4.70;99.90
23669;DHT22;12011;47.422;15.018;2022-10-31T06:34:46;4.80;99.90
23669;DHT22;12011;47.422;15.018;2022-10-31T06:37:16;4.90;99.90
23669;DHT22;12011;47.422;15.018;2022-10-31T06:39:48;5.10;99.90
23669;DHT22;12011;47.422;15.018;2022-10-31T06:42:18;5.30;99.90
23669;DHT22;12011;47.422;15.018;2022-10-31T06:44:51;5.60;99.90
23669;DHT22;12011;47.422;15.018;2022-10-31T06:47:39;5.90;99.90
23669;DHT22;12011;47.422;15.018;2022-10-31T06:50:14;6.50;99.90
23669;DHT22;12011;47.422;15.018;2022-10-31T06:52:50;7.50;99.90
23669;DHT22;12011;47.422;15.018;2022-10-31T06:55:21;8.10;99.90
23669;DHT22;12011;47.422;15.018;2022-10-31T06:57:50;8.40;99.90
23669;DHT22;12011;47.422;15.018;2022-10-31T07:00:24;8.20;99.90
23669;DHT22;12011;47.422;15.018;2022-10-31T07:03:04;8.10;99.90
23669;DHT22;12011;47.422;15.018;2022-10-31T07:05:40;8.10;99.90
23669;DHT22;12011;47.422;15.018;2022-10-31T07:08:12;8.10;99.90
23669;DHT22;12011;47.422;15.018;2022-10-31T07:10:50;8.00;99.90
23669;DHT22;12011;47.422;15.018;2022-10-31T07:13:22;8.20;99.90
23669;DHT22;12011;47.422;15.018;2022-10-31T07:16:04;8.20;99.90
23669;DHT22;12011;47.422;15.018;2022-10-31T07:18:38;8.50;99.90
23669;DHT22;12011;47.422;15.018;2022-10-31T07:21:08;8.90;99.90
23669;DHT22;12011;47.422;15.018;2022-10-31T07:23:38;9.50;99.90
23669;DHT22;12011;47.422;15.018;2022-10-31T07:26:39;9.90;99.90
23669;DHT22;12011;47.422;15.018;2022-10-31T07:29:13;10.20;99.90
23669;DHT22;12011;47.422;15.018;2022-10-31T07:31:45;10.70;99.90
23669;DHT22;12011;47.422;15.018;2022-10-31T07:34:21;11.60;99.90
23669;DHT22;12011;47.422;15.018;2022-10-31T07:37:14;11.90;99.00
23669;DHT22;12011;47.422;15.018;2022-10-31T07:39:44;11.70;99.90
23669;DHT22;12011;47.422;15.018;2022-10-31T07:42:13;11.60;99.90
23669;DHT22;12011;47.422;15.018;2022-10-31T07:44:45;11.50;99.90
23669;DHT22;12011;47.422;15.018;2022-10-31T07:47:45;11.90;99.00
23669;DHT22;12011;47.422;15.018;2022-10-31T07:50:34;12.10;95.80
23669;DHT22;12011;47.422;15.018;2022-10-31T07:53:27;12.50;95.60
23669;DHT22;12011;47.422;15.018;2022-10-31T07:56:10;12.80;88.80
23669;DHT22;12011;47.422;15.018;2022-10-31T07:58:40;13.20;88.50
23669;DHT22;12011;47.422;15.018;2022-10-31T08:01:10;13.50;80.90
23669;DHT22;12011;47.422;15.018;2022-10-31T08:03:50;14.90;76.30
23669;DHT22;12011;47.422;15.018;2022-10-31T08:06:38;15.90;67.80
23669;DHT22;12011;47.422;15.018;2022-10-31T08:09:27;16.70;62.40
23669;DHT22;12011;47.422;15.018;2022-10-31T08:12:01;17.80;59.60
23669;DHT22;12011;47.422;15.018;2022-10-31T08:14:32;18.40;56.40
23669;DHT22;12011;47.422;15.018;2022-10-31T08:17:01;18.70;54.00
23669;DHT22;12011;47.422;15.018;2022-10-31T08:19:43;19.20;53.10
23669;DHT22;12011;47.422;15.018;2022-10-31T08:22:17;18.90;51.60
23669;DHT22;12011;47.422;15.018;2022-10-31T08:24:48;19.20;50.70
23669;DHT22;12011;47.422;15.018;2022-10-31T08:27:19;19.60;50.70
23669;DHT22;12011;47.422;15.018;2022-10-31T08:29:49;19.90;49.50
23669;DHT22;12011;47.422;15.018;2022-10-31T08:32:22;20.20;50.20
23669;DHT22;12011;47.422;15.018;2022-10-31T08:34:54;20.30;48.60
23669;DHT22;12011;47.422;15.018;2022-10-31T08:37:43;20.60;49.10
23669;DHT22;12011;47.422;15.018;2022-10-31T08:40:13;20.70;47.50
23669;DHT22;12011;47.422;15.018;2022-10-31T08:42:44;20.80;46.30
23669;DHT22;12011;47.422;15.018;2022-10-31T08:45:14;21.20;46.30
23669;DHT22;12011;47.422;15.018;2022-10-31T08:47:44;22.00;47.90
23669;DHT22;12011;47.422;15.018;2022-10-31T08:50:16;22.20;48.40
23669;DHT22;12011;47.422;15.018;2022-10-31T08:52:47;22.80;46.20
23669;DHT22;12011;47.422;15.018;2022-10-31T08:55:16;22.60;44.20
23669;DHT22;12011;47.422;15.018;2022-10-31T08:58:03;23.00;46.30
23669;DHT22;12011;47.422;15.018;2022-10-31T09:00:41;22.90;42.40
23669;DHT22;12011;47.422;15.018;2022-10-31T09:03:17;22.80;42.70
23669;DHT22;12011;47.422;15.018;2022-10-31T09:05:59;22.30;44.30
23669;DHT22;12011;47.422;15.018;2022-10-31T09:08:35;21.70;44.80
23669;DHT22;12011;47.422;15.018;2022-10-31T09:11:06;22.10;45.50
23669;DHT22;12011;47.422;15.018;2022-10-31T09:14:01;22.30;45.10
23669;DHT22;12011;47.422;15.018;2022-10-31T09:16:51;22.50;44.50
23669;DHT22;12011;47.422;15.018;2022-10-31T09:19:34;22.60;44.40
23669;DHT22;12011;47.422;15.018;2022-10-31T09:22:09;22.90;44.60
23669;DHT22;12011;47.422;15.018;2022-10-31T09:24:41;22.90;46.20
23669;DHT22;12011;47.422;15.018;2022-10-31T09:27:10;22.90;42.20
23669;DHT22;12011;47.422;15.018;2022-10-31T09:29:43;22.50;43.50
23669;DHT22;12011;47.422;15.018;2022-10-31T09:32:13;21.40;45.70
23669;DHT22;12011;47.422;15.018;2022-10-31T09:34:46;20.70;49.40
23669;DHT22;12011;47.422;15.018;2022-10-31T09:37:23;20.00;52.90
23669;DHT22;12011;47.422;15.018;2022-10-31T09:39:52;19.60;55.10
23669;DHT22;12011;47.422;15.018;2022-10-31T09:42:55;19.90;52.40
23669;DHT22;12011;47.422;15.018;2022-10-31T09:45:34;20.60;51.00
23669;DHT22;12011;47.422;15.018;2022-10-31T09:48:35;21.00;49.40
23669;DHT22;12011;47.422;15.018;2022-10-31T09:51:23;21.40;48.30
23669;DHT22;12011;47.422;15.018;2022-10-31T09:54:10;21.90;46.70
23669;DHT22;12011;47.422;15.018;2022-10-31T09:56:43;22.10;45.60
23669;DHT22;12011;47.422;15.018;2022-10-31T09:59:26;22.50;44.50
23669;DHT22;12011;47.422;15.018;2022-10-31T10:02:02;22.30;43.90
23669;DHT22;12011;47.422;15.018;2022-10-31T10:04:41;22.40;45.90
23669;DHT22;12011;47.422;15.018;2022-10-31T10:07:24;21.80;45.40
23669;DHT22;12011;47.422;15.018;2022-10-31T10:10:28;22.60;45.20
23669;DHT22;12011;47.422;15.018;2022-10-31T10:13:44;22.80;44.20
23669;DHT22;12011;47.422;15.018;2022-10-31T10:16:40;22.90;42.60
23669;DHT22;12011;47.422;15.018;2022-10-31T10:19:30;23.00;43.30
23669;DHT22;12011;47.422;15.018;2022-10-31T10:22:15;23.20;44.00
23669;DHT22;12011;47.422;15.018;2022-10-31T10:24:59;23.60;42.60
23669;DHT22;12011;47.422;15.018;2022-10-31T10:27:49;23.80;42.50
23669;DHT22;12011;47.422;15.018;2022-10-31T10:30:29;23.90;43.90
23669;DHT22;12011;47.422;15.018;2022-10-31T10:33:10;24.00;40.10
23669;DHT22;12011;47.422;15.018;2022-10-31T10:35:46;24.60;40.80
23669;DHT22;12011;47.422;15.018;2022-10-31T10:38:24;24.30;39.40
23669;DHT22;12011;47.422;15.018;2022-10-31T10:41:00;24.10;39.00
23669;DHT22;12011;47.422;15.018;2022-10-31T10:43:37;24.40;41.10
23669;DHT22;12011;47.422;15.018;2022-10-31T10:46:17;24.40;40.40
23669;DHT22;12011;47.422;15.018;2022-10-31T10:49:09;24.90;40.70
23669;DHT22;12011;47.422;15.018;2022-10-31T10:51:58;24.90;39.30
23669;DHT22;12011;47.422;15.018;2022-10-31T10:54:46;25.30;37.70
23669;DHT22;12011;47.422;15.018;2022-10-31T10:57:41;25.30;37.70
23669;DHT22;12011;47.422;15.018;2022-10-31T11:00:22;25.70;37.50
23669;DHT22;12011;47.422;15.018;2022-10-31T11:02:54;26.00;37.20
23669;DHT22;12011;47.422;15.018;2022-10-31T11:05:30;26.30;37.70
23669;DHT22;12011;47.422;15.018;2022-10-31T11:08:04;26.50;35.20
23669;DHT22;12011;47.422;15.018;2022-10-31T11:10:35;26.50;36.10
23669;DHT22;12011;47.422;15.018;2022-10-31T11:13:19;26.50;36.70
23669;DHT22;12011;47.422;15.018;2022-10-31T11:15:57;26.30;36.30
23669;DHT22;12011;47.422;15.018;2022-10-31T11:18:31;26.30;36.30
23669;DHT22;12011;47.422;15.018;2022-10-31T11:21:03;26.10;35.00
23669;DHT22;12011;47.422;15.018;2022-10-31T11:23:33;26.70;35.10
23669;DHT22;12011;47.422;15.018;2022-10-31T11:26:05;26.50;36.40
23669;DHT22;12011;47.422;15.018;2022-10-31T11:28:35;26.90;35.40
23669;DHT22;12011;47.422;15.018;2022-10-31T11:31:12;26.70;35.20
23669;DHT22;12011;47.422;15.018;2022-10-31T11:33:47;26.70;34.30
23669;DHT22;12011;47.422;15.018;2022-10-31T11:36:22;26.70;34.60
23669;DHT22;12011;47.422;15.018;2022-10-31T11:38:54;26.30;38.20
23669;DHT22;12011;47.422;15.018;2022-10-31T11:41:27;26.40;36.90
23669;DHT22;12011;47.422;15.018;2022-10-31T11:44:01;26.60;35.90
23669;DHT22;12011;47.422;15.018;2022-10-31T11:46:39;26.70;36.90
23669;DHT22;12011;47.422;15.018;2022-10-31T11:49:17;26.70;36.30
23669;DHT22;12011;47.422;15.018;2022-10-31T11:51:52;26.50;35.50
23669;DHT22;12011;47.422;15.018;2022-10-31T11:54:27;26.10;37.00
23669;DHT22;12011;47.422;15.018;2022-10-31T11:56:58;25.80;36.00
23669;DHT22;12011;47.422;15.018;2022-10-31T11:59:30;25.60;35.50
23669;DHT22;12011;47.422;15.018;2022-10-31T12:02:18;26.00;35.50
23669;DHT22;12011;47.422;15.018;2022-10-31T12:04:57;26.00;35.90
23669;DHT22;12011;47.422;15.018;2022-10-31T12:07:30;26.30;38.20
23669;DHT22;12011;47.422;15.018;2022-10-31T12:10:00;26.40;37.10
23669;DHT22;12011;47.422;15.018;2022-10-31T12:12:50;26.00;37.60
23669;DHT22;12011;47.422;15.018;2022-10-31T12:15:31;25.40;37.40
23669;DHT22;12011;47.422;15.018;2022-10-31T12:21:21;25.40;39.60
23669;DHT22;12011;47.422;15.018;2022-10-31T12:24:09;24.70;38.30
23669;DHT22;12011;47.422;15.018;2022-10-31T12:26:54;24.60;38.60
23669;DHT22;12011;47.422;15.018;2022-10-31T12:29:50;24.80;39.90
23669;DHT22;12011;47.422;15.018;2022-10-31T12:32:40;24.50;41.80
23669;DHT22;12011;47.422;15.018;2022-10-31T12:35:43;24.40;41.60
23669;DHT22;12011;47.422;15.018;2022-10-31T12:38:38;24.00;40.10
23669;DHT22;12011;47.422;15.018;2022-10-31T12:41:36;23.90;42.60
23669;DHT22;12011;47.422;15.018;2022-10-31T12:44:32;23.20;41.80
23669;DHT22;12011;47.422;15.018;2022-10-31T12:50:47;22.50;45.10
23669;DHT22;12011;47.422;15.018;2022-10-31T12:53:36;22.00;48.70
23669;DHT22;12011;47.422;15.018;2022-10-31T12:56:27;21.30;49.00
23669;DHT22;12011;47.422;15.018;2022-10-31T12:59:10;21.00;51.00
23669;DHT22;12011;47.422;15.018;2022-10-31T13:01:54;20.60;52.60
23669;DHT22;12011;47.422;15.018;2022-10-31T13:04:40;20.40;51.80
23669;DHT22;12011;47.422;15.018;2022-10-31T13:07:21;20.10;53.00
23669;DHT22;12011;47.422;15.018;2022-10-31T13:09:58;19.80;52.70
23669;DHT22;12011;47.422;15.018;2022-10-31T13:12:32;19.80;54.30
23669;DHT22;12011;47.422;15.018;2022-10-31T13:15:13;19.70;53.80
23669;DHT22;12011;47.422;15.018;2022-10-31T13:17:50;19.60;55.80
23669;DHT22;12011;47.422;15.018;2022-10-31T13:20:27;19.40;55.10
23669;DHT22;12011;47.422;15.018;2022-10-31T13:23:09;19.40;57.80
23669;DHT22;12011;47.422;15.018;2022-10-31T13:25:49;19.30;57.00
23669;DHT22;12011;47.422;15.018;2022-10-31T13:28:29;19.40;56.80
23669;DHT22;12011;47.422;15.018;2022-10-31T13:31:02;19.50;56.90
23669;DHT22;12011;47.422;15.018;2022-10-31T13:33:37;19.40;57.00
23669;DHT22;12011;47.422;15.018;2022-10-31T13:36:19;19.40;60.00
23669;DHT22;12011;47.422;15.018;2022-10-31T13:39:04;19.50;58.30
23669;DHT22;12011;47.422;15.018;2022-10-31T13:41:48;19.60;56.50
23669;DHT22;12011;47.422;15.018;2022-10-31T13:44:24;19.50;55.50
23669;DHT22;12011;47.422;15.018;2022-10-31T13:46:57;19.50;56.90
23669;DHT22;12011;47.422;15.018;2022-10-31T13:49:38;19.50;60.40
23669;DHT22;12011;47.422;15.018;2022-10-31T13:52:17;19.60;57.40
23669;DHT22;12011;47.422;15.018;2022-10-31T13:54:54;19.70;58.90
23669;DHT22;12011;47.422;15.018;2022-10-31T13:57:32;19.80;58.40
23669;DHT22;12011;47.422;15.018;2022-10-31T14:00:21;19.70;56.20
23669;DHT22;12011;47.422;15.018;2022-10-31T14:02:56;19.70;57.90
23669;DHT22;12011;47.422;15.018;2022-10-31T14:05:30;19.60;59.30
23669;DHT22;12011;47.422;15.018;2022-10-31T14:08:04;19.60;56.00
23669;DHT22;12011;47.422;15.018;2022-10-31T14:10:38;19.70;58.60
23669;DHT22;12011;47.422;15.018;2022-10-31T14:13:20;19.60;64.70
23669;DHT22;12011;47.422;15.018;2022-10-31T14:15:55;19.40;62.30
23669;DHT22;12011;47.422;15.018;2022-10-31T14:18:38;19.30;65.60
23669;DHT22;12011;47.422;15.018;2022-10-31T14:21:25;19.20;59.50
23669;DHT22;12011;47.422;15.018;2022-10-31T14:23:57;19.10;59.50
23669;DHT22;12011;47.422;15.018;2022-10-31T14:26:36;19.10;62.60
23669;DHT22;12011;47.422;15.018;2022-10-31T14:29:24;19.00;61.60
23669;DHT22;12011;47.422;15.018;2022-10-31T14:32:01;18.90;63.70
23669;DHT22;12011;47.422;15.018;2022-10-31T14:34:40;18.80;63.50
23669;DHT22;12011;47.422;15.018;2022-10-31T14:37:31;18.80;64.00
23669;DHT22;12011;47.422;15.018;2022-10-31T14:40:27;18.40;67.20
23669;DHT22;12011;47.422;15.018;2022-10-31T14:46:30;18.00;70.60
23669;DHT22;12011;47.422;15.018;2022-10-31T14:49:21;17.80;71.70
23669;DHT22;12011;47.422;15.018;2022-10-31T14:51:58;17.70;73.00
23669;DHT22;12011;47.422;15.018;2022-10-31T14:54:32;17.40;77.40
23669;DHT22;12011;47.422;15.018;2022-10-31T14:57:08;17.10;85.70
23669;DHT22;12011;47.422;15.018;2022-10-31T14:59:50;16.50;91.40
23669;DHT22;12011;47.422;15.018;2022-10-31T15:02:26;16.10;96.60
23669;DHT22;12011;47.422;15.018;2022-10-31T15:05:03;15.90;96.90
23669;DHT22;12011;47.422;15.018;2022-10-31T15:07:36;15.60;98.70
23669;DHT22;12011;47.422;15.018;2022-10-31T15:10:20;15.50;98.80
23669;DHT22;12011;47.422;15.018;2022-10-31T15:12:52;15.50;98.20
23669;DHT22;12011;47.422;15.018;2022-10-31T15:15:26;15.40;98.40
23669;DHT22;12011;47.422;15.018;2022-10-31T15:17:59;15.30;98.00
23669;DHT22;12011;47.422;15.018;2022-10-31T15:20:33;14.70;94.70
23669;DHT22;12011;47.422;15.018;2022-10-31T15:23:09;14.20;98.20
23669;DHT22;12011;47.422;15.018;2022-10-31T15:28:28;13.80;99.90
23669;DHT22;12011;47.422;15.018;2022-10-31T15:31:02;13.60;99.90
23669;DHT22;12011;47.422;15.018;2022-10-31T15:33:40;13.40;99.90
23669;DHT22;12011;47.422;15.018;2022-10-31T15:36:19;13.30;99.90
23669;DHT22;12011;47.422;15.018;2022-10-31T15:38:50;13.30;99.90
23669;DHT22;12011;47.422;15.018;2022-10-31T15:41:27;13.10;99.90
23669;DHT22;12011;47.422;15.018;2022-10-31T15:44:04;13.00;99.90
23669;DHT22;12011;47.422;15.018;2022-10-31T15:46:55;12.70;99.90
23669;DHT22;12011;47.422;15.018;2022-10-31T15:49:37;12.30;99.90
23669;DHT22;12011;47.422;15.018;2022-10-31T15:52:15;12.30;99.90
23669;DHT22;12011;47.422;15.018;2022-10-31T15:54:51;12.40;99.90
23669;DHT22;12011;47.422;15.018;2022-10-31T15:57:23;12.50;99.90
23669;DHT22;12011;47.422;15.018;2022-10-31T15:59:54;12.60;99.90
23669;DHT22;12011;47.422;15.018;2022-10-31T16:02:27;12.60;99.90
23669;DHT22;12011;47.422;15.018;2022-10-31T16:04:59;12.20;99.90
23669;DHT22;12011;47.422;15.018;2022-10-31T16:07:29;11.80;99.90
23669;DHT22;12011;47.422;15.018;2022-10-31T16:10:01;11.70;99.90
23669;DHT22;12011;47.422;15.018;2022-10-31T16:12:36;11.80;99.90
23669;DHT22;12011;47.422;15.018;2022-10-31T16:15:14;11.70;99.90
23669;DHT22;12011;47.422;15.018;2022-10-31T16:17:50;12.00;99.90
23669;DHT22;12011;47.422;15.018;2022-10-31T16:20:25;11.90;99.90
23669;DHT22;12011;47.422;15.018;2022-10-31T16:22:59;11.70;99.90
23669;DHT22;12011;47.422;15.018;2022-10-31T16:25:35;11.70;99.90
23669;DHT22;12011;47.422;15.018;2022-10-31T16:28:15;11.60;99.90
23669;DHT22;12011;47.422;15.018;2022-10-31T16:30:49;11.50;99.90
23669;DHT22;12011;47.422;15.018;2022-10-31T16:33:26;11.50;99.90
23669;DHT22;12011;47.422;15.018;2022-10-31T16:35:58;11.30;99.90
23669;DHT22;12011;47.422;15.018;2022-10-31T16:38:28;11.30;99.90
23669;DHT22;12011;47.422;15.018;2022-10-31T16:40:58;11.30;99.90